Miguel Oliver — ECLX — position and weather

sailwx.info

Track history (hours):
 
Tides and Currents Weather Stations Pressure Air Temp Water Temp Dewpoint Dewpoint Depression Visibility Wind Speed Wind Dir Waves Ship Positions

Oceanographic research ship Miguel Oliver (Spain)

Ship's website: http://www.mapa.es/es/pesca/pags/miguel_web/index.htm

Last reported at 2019-Feb-16 20:24 UTC. Time now 2019-Feb-23 16:43 UTC.
Position N 37°27' W 009°44'.

Length 70 m; draft 5.3 m.

Type: Other ship. MMSI: 225322000.

Date/timePositionNaut miles runAvg speedWind from/ knotsBaromVisibWave heightAir tempDewpointWater temp
2019-Feb-16 20:24N 37°27' W 009°44'511.5
2019-Feb-16 20:00N 37°31' W 009°45'1111.7
2019-Feb-16 19:04N 37°42' W 009°49'111.9
2019-Feb-16 19:00N 37°42' W 009°49'1511.7
2019-Feb-16 17:43N 37°57' W 009°53'311.8
2019-Feb-16 17:29N 37°60' W 009°54'1511.7
2019-Feb-16 16:11N 38°15' W 009°57'211.7
2019-Feb-16 16:00N 38°17' W 009°58'611.6
2019-Feb-16 15:30N 38°22' W 009°60'611.5
2019-Feb-16 15:00N 38°28' W 010°02'611.3
2019-Feb-16 14:30N 38°33' W 010°04'611.7
2019-Feb-16 14:00N 38°39' W 010°05'611.4
2019-Feb-16 13:30N 38°45' W 010°06'611.3
2019-Feb-16 13:00N 38°50' W 010°06'611.4
2019-Feb-16 12:30N 38°56' W 010°05'611.4
2019-Feb-16 12:00N 39°02' W 010°03'611.4
2019-Feb-16 11:30N 39°07' W 010°01'611.5
2019-Feb-16 11:00N 39°13' W 009°60'611.5
2019-Feb-16 10:30N 39°18' W 009°58'611.7
2019-Feb-16 10:00N 39°24' W 009°56'1611.9
2019-Feb-16 08:39N 39°40' W 009°51'14811.5
2019-Feb-15 19:46N 42°03' W 009°02'311.0
2019-Feb-15 19:30N 42°06' W 009°01'5 9.8
2019-Feb-15 19:00N 42°09' W 008°56'510.9
2019-Feb-15 18:30N 42°13' W 008°50'4 8.6
2019-Feb-15 18:00N 42°14' W 008°44'0 0.0
2019-Feb-15 15:11N 42°14' W 008°44'0 0.0
2019-Feb-15 14:59N 42°14' W 008°44'0 0.0
2019-Feb-15 12:31N 42°14' W 008°44'0 0.0
2019-Feb-15 12:13N 42°14' W 008°44'0 0.0
2019-Feb-15 11:31N 42°14' W 008°44'0 0.0
2019-Feb-15 11:14N 42°14' W 008°44'0 0.0
2019-Feb-15 10:38N 42°14' W 008°44'0 0.0
2019-Feb-15 10:05N 42°14' W 008°44'0 0.0
2019-Feb-15 09:56N 42°14' W 008°44'0 0.0
2019-Feb-15 09:21N 42°14' W 008°44'0 0.0
2019-Feb-15 07:46N 42°14' W 008°44'0 0.0
2019-Feb-15 07:22N 42°14' W 008°44'0 0.0
2019-Feb-15 06:41N 42°14' W 008°44'0 0.0
2019-Feb-15 05:59N 42°14' W 008°44'0 0.0
2019-Feb-15 03:37N 42°14' W 008°44'0 0.0
2019-Feb-15 02:43N 42°14' W 008°44'0 0.0
2019-Feb-14 23:45N 42°14' W 008°44'0 0.0
2019-Feb-14 17:31N 42°14' W 008°44'0 0.0
2019-Feb-14 15:45N 42°14' W 008°44'0 0.0
2019-Feb-14 15:27N 42°14' W 008°44'0 0.0
2019-Feb-14 14:04N 42°14' W 008°44'0 0.0
2019-Feb-14 10:00N 42°14' W 008°44'0 0.0
2019-Feb-14 09:25N 42°14' W 008°44'0 0.0
2019-Feb-14 07:20N 42°14' W 008°44'0 0.0
2019-Feb-14 00:01N 42°14' W 008°44'0 0.0
2019-Feb-13 21:39N 42°14' W 008°44'0 0.0
2019-Feb-13 17:35N 42°14' W 008°44'0 0.0
2019-Feb-13 16:48N 42°14' W 008°44'0 0.0
2019-Feb-13 15:55N 42°14' W 008°44'0 0.0
2019-Feb-13 15:13N 42°14' W 008°44'0 0.0
2019-Feb-13 15:01N 42°14' W 008°44'1 1.6
2019-Feb-13 14:30N 42°14' W 008°45'4 8.0
2019-Feb-13 14:00N 42°12' W 008°50'1 1.9
2019-Feb-13 13:31N 42°13' W 008°50'2 4.4
2019-Feb-13 13:00N 42°12' W 008°52'1 1.3
2019-Feb-13 12:31N 42°13' W 008°52'0 0.2
2019-Feb-13 12:00N 42°13' W 008°52'1 1.7
2019-Feb-13 11:31N 42°13' W 008°53'0 1.0
2019-Feb-13 11:01N 42°13' W 008°52'0 0.1
2019-Feb-13 10:31N 42°13' W 008°52'0 0.7
2019-Feb-13 10:01N 42°13' W 008°53'4 7.6
2019-Feb-13 09:31N 42°14' W 008°48'  
2019-Feb-10 07:58N 42°14' W 008°44'0 0.0
2019-Feb-10 07:28N 42°14' W 008°44'0 0.0
2019-Feb-10 05:41N 42°14' W 008°44'0 0.0
2019-Feb-10 05:00N 42°14' W 008°44'0 0.0
2019-Feb-09 19:45N 42°14' W 008°44'0 0.0
2019-Feb-09 17:52N 42°14' W 008°44'0 0.0
2019-Feb-09 17:17N 42°14' W 008°44'0 0.0
2019-Feb-09 16:35N 42°14' W 008°44'0 0.0
2019-Feb-09 16:29N 42°14' W 008°44'0 0.0
2019-Feb-09 15:42N 42°14' W 008°44'0 0.0
2019-Feb-09 14:42N 42°14' W 008°44'0 0.0
2019-Feb-09 14:10N 42°14' W 008°44'0 0.0
2019-Feb-09 13:52N 42°14' W 008°44'0 0.0
2019-Feb-09 09:34N 42°14' W 008°44'0 0.0
2019-Feb-09 07:47N 42°14' W 008°44'0 0.0
2019-Feb-08 15:58N 42°14' W 008°44'0 0.0
2019-Feb-08 14:20N 42°14' W 008°44'0 0.0
2019-Feb-07 16:17N 42°14' W 008°44'  
Track history (hours):
 
Tides and Currents Weather Stations Pressure Air Temp Water Temp Dewpoint Dewpoint Depression Visibility Wind Speed Wind Dir Waves Ship Positions

Oceanographic research ship Miguel Oliver (Spain)

Ship's website: http://www.mapa.es/es/pesca/pags/miguel_web/index.htm

Last reported at 2019-Feb-16 20:24 UTC. Time now 2019-Feb-23 16:43 UTC.
Position N 37°27' W 009°44'.

Length 70 m; draft 5.3 m.

Type: Other ship. MMSI: 225322000.

Date/timePositionNaut miles runAvg speedWind from/ knotsBaromVisibWave heightAir tempDewpointWater temp
2019-Feb-16 20:24N 37°27' W 009°44'511.5
2019-Feb-16 20:00N 37°31' W 009°45'1111.7
2019-Feb-16 19:04N 37°42' W 009°49'111.9
2019-Feb-16 19:00N 37°42' W 009°49'1511.7
2019-Feb-16 17:43N 37°57' W 009°53'311.8
2019-Feb-16 17:29N 37°60' W 009°54'1511.7
2019-Feb-16 16:11N 38°15' W 009°57'211.7
2019-Feb-16 16:00N 38°17' W 009°58'611.6
2019-Feb-16 15:30N 38°22' W 009°60'611.5
2019-Feb-16 15:00N 38°28' W 010°02'611.3
2019-Feb-16 14:30N 38°33' W 010°04'611.7
2019-Feb-16 14:00N 38°39' W 010°05'611.4
2019-Feb-16 13:30N 38°45' W 010°06'611.3
2019-Feb-16 13:00N 38°50' W 010°06'611.4
2019-Feb-16 12:30N 38°56' W 010°05'611.4
2019-Feb-16 12:00N 39°02' W 010°03'611.4
2019-Feb-16 11:30N 39°07' W 010°01'611.5
2019-Feb-16 11:00N 39°13' W 009°60'611.5
2019-Feb-16 10:30N 39°18' W 009°58'611.7
2019-Feb-16 10:00N 39°24' W 009°56'1611.9
2019-Feb-16 08:39N 39°40' W 009°51'14811.5
2019-Feb-15 19:46N 42°03' W 009°02'311.0
2019-Feb-15 19:30N 42°06' W 009°01'5 9.8
2019-Feb-15 19:00N 42°09' W 008°56'510.9
2019-Feb-15 18:30N 42°13' W 008°50'4 8.6
2019-Feb-15 18:00N 42°14' W 008°44'0 0.0
2019-Feb-15 15:11N 42°14' W 008°44'0 0.0
2019-Feb-15 14:59N 42°14' W 008°44'0 0.0
2019-Feb-15 12:31N 42°14' W 008°44'0 0.0
2019-Feb-15 12:13N 42°14' W 008°44'0 0.0
2019-Feb-15 11:31N 42°14' W 008°44'0 0.0
2019-Feb-15 11:14N 42°14' W 008°44'0 0.0
2019-Feb-15 10:38N 42°14' W 008°44'0 0.0
2019-Feb-15 10:05N 42°14' W 008°44'0 0.0
2019-Feb-15 09:56N 42°14' W 008°44'0 0.0
2019-Feb-15 09:21N 42°14' W 008°44'0 0.0
2019-Feb-15 07:46N 42°14' W 008°44'0 0.0
2019-Feb-15 07:22N 42°14' W 008°44'0 0.0
2019-Feb-15 06:41N 42°14' W 008°44'0 0.0
2019-Feb-15 05:59N 42°14' W 008°44'0 0.0
2019-Feb-15 03:37N 42°14' W 008°44'0 0.0
2019-Feb-15 02:43N 42°14' W 008°44'0 0.0
2019-Feb-14 23:45N 42°14' W 008°44'0 0.0
2019-Feb-14 17:31N 42°14' W 008°44'0 0.0
2019-Feb-14 15:45N 42°14' W 008°44'0 0.0
2019-Feb-14 15:27N 42°14' W 008°44'0 0.0
2019-Feb-14 14:04N 42°14' W 008°44'0 0.0
2019-Feb-14 10:00N 42°14' W 008°44'0 0.0
2019-Feb-14 09:25N 42°14' W 008°44'0 0.0
2019-Feb-14 07:20N 42°14' W 008°44'0 0.0
2019-Feb-14 00:01N 42°14' W 008°44'0 0.0
2019-Feb-13 21:39N 42°14' W 008°44'0 0.0
2019-Feb-13 17:35N 42°14' W 008°44'0 0.0
2019-Feb-13 16:48N 42°14' W 008°44'0 0.0
2019-Feb-13 15:55N 42°14' W 008°44'0 0.0
2019-Feb-13 15:13N 42°14' W 008°44'0 0.0
2019-Feb-13 15:01N 42°14' W 008°44'1 1.6
2019-Feb-13 14:30N 42°14' W 008°45'4 8.0
2019-Feb-13 14:00N 42°12' W 008°50'1 1.9
2019-Feb-13 13:31N 42°13' W 008°50'2 4.4
2019-Feb-13 13:00N 42°12' W 008°52'1 1.3
2019-Feb-13 12:31N 42°13' W 008°52'0 0.2
2019-Feb-13 12:00N 42°13' W 008°52'1 1.7
2019-Feb-13 11:31N 42°13' W 008°53'0 1.0
2019-Feb-13 11:01N 42°13' W 008°52'0 0.1
2019-Feb-13 10:31N 42°13' W 008°52'0 0.7
2019-Feb-13 10:01N 42°13' W 008°53'4 7.6
2019-Feb-13 09:31N 42°14' W 008°48'  
2019-Feb-10 07:58N 42°14' W 008°44'0 0.0
2019-Feb-10 07:28N 42°14' W 008°44'0 0.0
2019-Feb-10 05:41N 42°14' W 008°44'0 0.0
2019-Feb-10 05:00N 42°14' W 008°44'0 0.0
2019-Feb-09 19:45N 42°14' W 008°44'0 0.0
2019-Feb-09 17:52N 42°14' W 008°44'0 0.0
2019-Feb-09 17:17N 42°14' W 008°44'0 0.0
2019-Feb-09 16:35N 42°14' W 008°44'0 0.0
2019-Feb-09 16:29N 42°14' W 008°44'0 0.0
2019-Feb-09 15:42N 42°14' W 008°44'0 0.0
2019-Feb-09 14:42N 42°14' W 008°44'0 0.0
2019-Feb-09 14:10N 42°14' W 008°44'0 0.0
2019-Feb-09 13:52N 42°14' W 008°44'0 0.0
2019-Feb-09 09:34N 42°14' W 008°44'0 0.0
2019-Feb-09 07:47N 42°14' W 008°44'0 0.0
2019-Feb-08 15:58N 42°14' W 008°44'0 0.0
2019-Feb-08 14:20N 42°14' W 008°44'0 0.0
2019-Feb-07 16:17N 42°14' W 008°44'  

Dump ship's entire track history